createdAt,value
2019-01-14T12:12:05.264Z,98714.00
2019-01-14T12:14:31.467Z,98720.00
2019-01-14T12:16:57.656Z,98712.00
2019-01-14T12:19:23.856Z,98759.00
2019-01-14T12:21:50.053Z,98767.00
2019-01-14T12:24:16.251Z,98793.00
2019-01-14T12:26:42.445Z,98784.00
2019-01-14T12:29:08.646Z,98802.00
2019-01-14T12:31:34.934Z,98806.00
2019-01-14T12:34:01.130Z,98808.00
2019-01-14T12:36:27.320Z,98806.00
2019-01-14T12:38:53.515Z,98782.00
2019-01-14T12:41:19.702Z,98779.00
2019-01-14T12:43:45.905Z,98768.00
2019-01-14T12:46:12.095Z,98786.00
2019-01-14T12:48:38.309Z,98778.00
2019-01-14T12:51:04.498Z,98785.00
2019-01-14T12:53:30.709Z,98784.00
2019-01-14T12:55:56.885Z,98772.00
2019-01-14T12:58:23.086Z,98785.00
2019-01-14T13:00:49.319Z,98785.00
2019-01-14T13:03:15.526Z,98798.00
2019-01-14T13:05:41.709Z,98802.00
2019-01-14T13:08:07.914Z,98791.00
2019-01-14T13:10:34.120Z,98801.00
2019-01-14T13:13:00.321Z,98805.00
2019-01-14T13:15:26.813Z,98800.00
2019-01-14T13:17:53.005Z,98809.00
2019-01-14T13:20:20.797Z,98813.00
2019-01-14T13:22:47.304Z,98826.00
2019-01-14T13:25:13.691Z,98836.00
2019-01-14T13:27:40.076Z,98828.00
2019-01-14T13:30:17.230Z,98816.00
2019-01-14T13:32:43.419Z,98814.00
2019-01-14T13:35:09.723Z,98810.00
2019-01-14T13:37:35.903Z,98823.00
2019-01-14T13:40:09.362Z,98826.00
2019-01-14T13:42:35.550Z,98827.00
2019-01-14T13:45:02.648Z,98837.00
2019-01-14T13:47:28.836Z,98857.00
2019-01-14T13:49:55.044Z,98844.00
